Chincoteague Island, Virginia
Current Conditions -  °F | °C
As of 2:54 PM on Monday 24 Nov 2014 (Local Time) from KWAL Reporting Station
Few Clouds Few Clouds  
Wind Chill: 61°   Ceiling: Unl
Heat Index: 61°   Visibility: 10mi
Dew Point: 58°   Wind: 20mph
Humidity: 90%   Direction: 210°SSW
Pressure: 29.75"   Gusts: 24mph
Location:  37.93°N, 75.38°W
Report Text: KWAL 241954Z 21017G21KT 10SM FEW110 16/14 A2975 RMK AO2 PK WND 21026/1855 SLP071 T01610144
Loading
Personal Weather Stations






























Interactive Weather Map New forecast layout! Learn more

10-Day Weather Forecast

Advertisements
Track Severe Weather on mobile